createdAt,value
2018-03-14T00:07:12.629Z,0
2018-03-14T00:17:12.585Z,0
2018-03-14T00:27:12.662Z,0
2018-03-14T00:37:12.625Z,0
2018-03-14T00:47:12.615Z,0
2018-03-14T00:57:12.652Z,0
2018-03-14T01:07:12.613Z,0
2018-03-14T01:17:12.586Z,0
2018-03-14T01:27:12.644Z,0
2018-03-14T01:37:12.605Z,0
2018-03-14T01:47:12.689Z,0
2018-03-14T01:57:12.664Z,0
2018-03-14T02:07:12.603Z,0
2018-03-14T02:17:12.633Z,0
2018-03-14T02:27:12.625Z,0
2018-03-14T02:37:12.604Z,0
2018-03-14T02:47:12.637Z,0
2018-03-14T02:57:12.578Z,0
2018-03-14T03:07:12.518Z,0
2018-03-14T03:17:12.626Z,0
2018-03-14T03:27:12.580Z,0
2018-03-14T03:37:12.530Z,0
2018-03-14T03:47:12.615Z,0
2018-03-14T03:57:12.561Z,0
2018-03-14T04:07:12.607Z,0
2018-03-14T04:17:12.565Z,0
2018-03-14T04:27:12.528Z,0
2018-03-14T04:37:12.597Z,0
2018-03-14T04:47:12.572Z,0
2018-03-14T04:57:12.512Z,0
2018-03-14T05:07:12.576Z,0
2018-03-14T05:17:12.557Z,4
2018-03-14T05:27:12.623Z,16
2018-03-14T05:37:12.581Z,64
2018-03-14T05:47:12.516Z,176
2018-03-14T05:57:12.560Z,332
2018-03-14T06:07:12.519Z,492
2018-03-14T06:17:12.504Z,884
2018-03-14T06:27:12.599Z,1240
2018-03-14T06:37:16.144Z,1496
2018-03-14T06:47:12.568Z,2024
2018-03-14T06:57:12.661Z,2816
2018-03-14T07:07:12.653Z,4096
2018-03-14T07:17:12.666Z,5432
2018-03-14T07:27:12.581Z,6340
2018-03-14T07:37:12.522Z,5936
2018-03-14T07:47:12.524Z,8484
2018-03-14T07:57:12.535Z,9168
2018-03-14T08:07:12.496Z,8700
2018-03-14T08:17:12.541Z,7208
2018-03-14T08:27:12.523Z,12588
2018-03-14T08:37:12.654Z,10496
2018-03-14T08:47:12.531Z,12648
2018-03-14T08:57:12.529Z,10580
2018-03-14T09:07:12.584Z,12804
2018-03-14T09:17:12.514Z,11612
2018-03-14T09:27:12.588Z,11164
2018-03-14T09:37:12.560Z,13528
2018-03-14T09:47:12.465Z,13924
2018-03-14T09:57:12.472Z,7920
2018-03-14T10:07:12.554Z,5400
2018-03-14T10:17:12.478Z,6192
2018-03-14T10:27:12.469Z,8496
2018-03-14T10:37:12.466Z,11372
2018-03-14T10:47:12.459Z,9756
2018-03-14T10:57:12.516Z,13568
2018-03-14T11:07:12.485Z,12792
2018-03-14T11:17:12.509Z,9852
2018-03-14T11:27:12.484Z,13068
2018-03-14T11:37:12.429Z,13192
2018-03-14T11:47:12.521Z,12720
2018-03-14T11:57:12.465Z,12872
2018-03-14T12:07:12.479Z,13516
2018-03-14T12:17:12.451Z,12604
2018-03-14T12:27:12.482Z,13376
2018-03-14T12:37:12.486Z,9200
2018-03-14T12:47:12.550Z,11588
2018-03-14T12:57:12.533Z,12148
2018-03-14T13:07:12.448Z,10572
2018-03-14T13:17:12.470Z,10336
2018-03-14T13:27:12.506Z,10120
2018-03-14T13:37:12.466Z,7172
2018-03-14T13:47:12.470Z,8596
2018-03-14T13:57:12.496Z,5552
2018-03-14T14:07:12.747Z,3540
2018-03-14T14:17:12.558Z,3256
2018-03-14T14:27:12.512Z,3072
2018-03-14T14:37:12.515Z,2740
2018-03-14T14:47:12.543Z,2944
2018-03-14T14:57:12.563Z,3100
2018-03-14T15:07:12.569Z,2840
2018-03-14T15:17:12.536Z,2776
2018-03-14T15:27:12.530Z,2708
2018-03-14T15:37:12.614Z,2644
2018-03-14T15:47:12.935Z,2536
2018-03-14T15:57:12.563Z,2424
2018-03-14T16:07:12.891Z,2316
2018-03-14T16:17:12.523Z,2356
2018-03-14T16:27:13.567Z,2020
2018-03-14T16:37:12.620Z,1772
2018-03-14T16:47:12.526Z,1504
2018-03-14T16:57:12.663Z,1220
2018-03-14T17:07:12.554Z,900
2018-03-14T17:17:12.598Z,524
2018-03-14T17:27:12.586Z,232
2018-03-14T17:37:12.553Z,80
2018-03-14T17:47:12.658Z,20
2018-03-14T17:57:12.720Z,0
2018-03-14T18:07:12.488Z,0
2018-03-14T18:17:12.475Z,0
2018-03-14T18:27:12.477Z,0
2018-03-14T18:37:12.438Z,0
2018-03-14T18:47:12.442Z,0
2018-03-14T18:57:12.431Z,0
2018-03-14T19:07:12.436Z,0
2018-03-14T19:17:12.478Z,0
2018-03-14T19:27:12.452Z,0
2018-03-14T19:37:12.430Z,0
2018-03-14T19:47:12.423Z,0
2018-03-14T19:57:12.436Z,0
2018-03-14T20:07:12.464Z,0
2018-03-14T20:17:12.463Z,0
2018-03-14T20:27:12.495Z,0
2018-03-14T20:37:12.446Z,0
2018-03-14T20:47:12.558Z,0
2018-03-14T20:57:12.431Z,0
2018-03-14T21:07:12.469Z,0
2018-03-14T21:17:12.526Z,0
2018-03-14T21:27:12.566Z,0
2018-03-14T21:37:12.549Z,0
2018-03-14T21:47:12.882Z,0
2018-03-14T21:57:12.520Z,0
2018-03-14T22:07:13.057Z,0
2018-03-14T22:17:12.622Z,0
2018-03-14T22:27:12.499Z,0
2018-03-14T22:37:12.514Z,0
2018-03-14T22:47:12.405Z,0
2018-03-14T22:57:12.463Z,0
2018-03-14T23:07:12.519Z,0
2018-03-14T23:17:12.445Z,0
2018-03-14T23:27:12.486Z,0
2018-03-14T23:37:12.455Z,0
2018-03-14T23:47:12.430Z,0
2018-03-14T23:57:12.475Z,0
